sensor_id;sensor_type;location;lat;lon;timestamp;P1;durP1;ratioP1;P2;durP2;ratioP2
9334;SDS011;4706;41.844;26.082;2022-11-14T00:00:27;27.30;;;24.45;;
9334;SDS011;4706;41.844;26.082;2022-11-14T00:02:54;28.75;;;25.70;;
9334;SDS011;4706;41.844;26.082;2022-11-14T00:05:24;25.50;;;22.90;;
9334;SDS011;4706;41.844;26.082;2022-11-14T00:07:50;26.95;;;24.15;;
9334;SDS011;4706;41.844;26.082;2022-11-14T00:10:15;26.40;;;22.90;;
9334;SDS011;4706;41.844;26.082;2022-11-14T00:12:41;23.98;;;21.42;;
9334;SDS011;4706;41.844;26.082;2022-11-14T00:15:07;23.80;;;21.27;;
9334;SDS011;4706;41.844;26.082;2022-11-14T00:17:33;23.92;;;21.52;;
9334;SDS011;4706;41.844;26.082;2022-11-14T00:19:59;23.73;;;21.23;;
9334;SDS011;4706;41.844;26.082;2022-11-14T00:22:25;22.55;;;20.33;;
9334;SDS011;4706;41.844;26.082;2022-11-14T00:24:50;23.77;;;21.00;;
9334;SDS011;4706;41.844;26.082;2022-11-14T00:27:16;25.48;;;22.80;;
9334;SDS011;4706;41.844;26.082;2022-11-14T00:29:41;26.25;;;23.67;;
9334;SDS011;4706;41.844;26.082;2022-11-14T00:32:07;27.45;;;24.60;;
9334;SDS011;4706;41.844;26.082;2022-11-14T00:34:32;26.52;;;23.90;;
9334;SDS011;4706;41.844;26.082;2022-11-14T00:36:58;25.00;;;22.50;;
9334;SDS011;4706;41.844;26.082;2022-11-14T00:39:24;25.15;;;22.65;;
9334;SDS011;4706;41.844;26.082;2022-11-14T00:41:50;27.17;;;24.45;;
9334;SDS011;4706;41.844;26.082;2022-11-14T00:44:15;25.38;;;22.70;;
9334;SDS011;4706;41.844;26.082;2022-11-14T00:46:41;26.95;;;24.35;;
9334;SDS011;4706;41.844;26.082;2022-11-14T00:49:06;25.38;;;22.92;;
9334;SDS011;4706;41.844;26.082;2022-11-14T00:51:32;25.58;;;23.02;;
9334;SDS011;4706;41.844;26.082;2022-11-14T00:53:57;26.13;;;23.50;;
9334;SDS011;4706;41.844;26.082;2022-11-14T00:56:23;27.05;;;24.25;;
9334;SDS011;4706;41.844;26.082;2022-11-14T00:58:48;28.20;;;25.17;;
9334;SDS011;4706;41.844;26.082;2022-11-14T01:01:14;29.83;;;26.83;;
9334;SDS011;4706;41.844;26.082;2022-11-14T01:03:39;31.17;;;28.08;;
9334;SDS011;4706;41.844;26.082;2022-11-14T01:06:07;31.27;;;28.17;;
9334;SDS011;4706;41.844;26.082;2022-11-14T01:08:34;31.13;;;28.15;;
9334;SDS011;4706;41.844;26.082;2022-11-14T01:10:59;29.75;;;26.67;;
9334;SDS011;4706;41.844;26.082;2022-11-14T01:13:25;28.98;;;26.17;;
9334;SDS011;4706;41.844;26.082;2022-11-14T01:15:58;29.00;;;26.08;;
9334;SDS011;4706;41.844;26.082;2022-11-14T01:18:24;28.00;;;25.20;;
9334;SDS011;4706;41.844;26.082;2022-11-14T01:20:50;27.77;;;25.02;;
9334;SDS011;4706;41.844;26.082;2022-11-14T01:23:16;28.33;;;25.30;;
9334;SDS011;4706;41.844;26.082;2022-11-14T01:25:41;28.40;;;25.50;;
9334;SDS011;4706;41.844;26.082;2022-11-14T01:28:08;28.42;;;25.52;;
9334;SDS011;4706;41.844;26.082;2022-11-14T01:30:38;28.13;;;25.38;;
9334;SDS011;4706;41.844;26.082;2022-11-14T01:33:05;27.83;;;25.17;;
9334;SDS011;4706;41.844;26.082;2022-11-14T01:35:31;26.30;;;23.52;;
9334;SDS011;4706;41.844;26.082;2022-11-14T01:37:58;27.50;;;24.58;;
9334;SDS011;4706;41.844;26.082;2022-11-14T01:40:24;27.25;;;24.67;;
9334;SDS011;4706;41.844;26.082;2022-11-14T01:48:29;25.55;;;23.17;;
9334;SDS011;4706;41.844;26.082;2022-11-14T01:53:50;24.63;;;22.10;;
9334;SDS011;4706;41.844;26.082;2022-11-14T01:56:20;24.15;;;21.90;;
9334;SDS011;4706;41.844;26.082;2022-11-14T01:58:51;24.58;;;22.27;;
9334;SDS011;4706;41.844;26.082;2022-11-14T02:01:23;24.67;;;22.27;;
9334;SDS011;4706;41.844;26.082;2022-11-14T02:03:50;23.70;;;21.50;;
9334;SDS011;4706;41.844;26.082;2022-11-14T02:06:18;23.85;;;21.65;;
9334;SDS011;4706;41.844;26.082;2022-11-14T02:08:47;25.08;;;22.80;;
9334;SDS011;4706;41.844;26.082;2022-11-14T02:11:14;24.95;;;22.58;;
9334;SDS011;4706;41.844;26.082;2022-11-14T02:13:40;25.48;;;23.02;;
9334;SDS011;4706;41.844;26.082;2022-11-14T02:16:05;26.10;;;23.60;;
9334;SDS011;4706;41.844;26.082;2022-11-14T02:18:31;25.52;;;23.23;;
9334;SDS011;4706;41.844;26.082;2022-11-14T02:20:57;26.33;;;23.83;;
9334;SDS011;4706;41.844;26.082;2022-11-14T02:23:26;26.73;;;24.27;;
9334;SDS011;4706;41.844;26.082;2022-11-14T02:25:53;27.30;;;24.50;;
9334;SDS011;4706;41.844;26.082;2022-11-14T02:28:19;26.10;;;23.70;;
9334;SDS011;4706;41.844;26.082;2022-11-14T02:30:45;27.45;;;24.67;;
9334;SDS011;4706;41.844;26.082;2022-11-14T02:33:11;26.60;;;23.83;;
9334;SDS011;4706;41.844;26.082;2022-11-14T02:35:37;30.17;;;27.08;;
9334;SDS011;4706;41.844;26.082;2022-11-14T02:38:02;30.05;;;27.13;;
9334;SDS011;4706;41.844;26.082;2022-11-14T02:40:28;31.55;;;28.45;;
9334;SDS011;4706;41.844;26.082;2022-11-14T02:42:54;32.08;;;28.92;;
9334;SDS011;4706;41.844;26.082;2022-11-14T02:45:19;31.50;;;28.63;;
9334;SDS011;4706;41.844;26.082;2022-11-14T02:47:45;33.58;;;30.48;;
9334;SDS011;4706;41.844;26.082;2022-11-14T02:50:10;33.45;;;30.35;;
9334;SDS011;4706;41.844;26.082;2022-11-14T02:52:36;33.20;;;30.00;;
9334;SDS011;4706;41.844;26.082;2022-11-14T02:55:02;32.35;;;29.38;;
9334;SDS011;4706;41.844;26.082;2022-11-14T02:57:28;30.38;;;27.40;;
9334;SDS011;4706;41.844;26.082;2022-11-14T02:59:54;30.95;;;27.67;;
9334;SDS011;4706;41.844;26.082;2022-11-14T03:02:19;31.02;;;28.15;;
9334;SDS011;4706;41.844;26.082;2022-11-14T03:04:45;30.70;;;27.88;;
9334;SDS011;4706;41.844;26.082;2022-11-14T03:07:11;30.48;;;27.67;;
9334;SDS011;4706;41.844;26.082;2022-11-14T03:09:36;30.65;;;27.95;;
9334;SDS011;4706;41.844;26.082;2022-11-14T03:12:02;32.38;;;29.42;;
9334;SDS011;4706;41.844;26.082;2022-11-14T03:14:29;32.28;;;29.27;;
9334;SDS011;4706;41.844;26.082;2022-11-14T03:16:55;31.40;;;28.30;;
9334;SDS011;4706;41.844;26.082;2022-11-14T03:19:20;31.50;;;28.60;;
9334;SDS011;4706;41.844;26.082;2022-11-14T03:21:46;32.70;;;29.48;;
9334;SDS011;4706;41.844;26.082;2022-11-14T03:24:11;30.67;;;27.77;;
9334;SDS011;4706;41.844;26.082;2022-11-14T03:26:37;31.02;;;27.83;;
9334;SDS011;4706;41.844;26.082;2022-11-14T03:29:02;31.42;;;28.35;;
9334;SDS011;4706;41.844;26.082;2022-11-14T03:31:28;29.90;;;26.98;;
9334;SDS011;4706;41.844;26.082;2022-11-14T03:33:53;29.67;;;26.85;;
9334;SDS011;4706;41.844;26.082;2022-11-14T03:36:19;28.45;;;25.60;;
9334;SDS011;4706;41.844;26.082;2022-11-14T03:38:44;27.77;;;25.05;;
9334;SDS011;4706;41.844;26.082;2022-11-14T03:41:10;28.45;;;25.95;;
9334;SDS011;4706;41.844;26.082;2022-11-14T03:43:35;26.63;;;24.17;;
9334;SDS011;4706;41.844;26.082;2022-11-14T03:46:01;26.05;;;23.58;;
9334;SDS011;4706;41.844;26.082;2022-11-14T03:48:28;26.70;;;23.98;;
9334;SDS011;4706;41.844;26.082;2022-11-14T03:50:55;26.77;;;23.88;;
9334;SDS011;4706;41.844;26.082;2022-11-14T03:53:21;25.80;;;23.02;;
9334;SDS011;4706;41.844;26.082;2022-11-14T03:55:46;27.17;;;24.48;;
9334;SDS011;4706;41.844;26.082;2022-11-14T03:58:12;27.15;;;24.35;;
9334;SDS011;4706;41.844;26.082;2022-11-14T04:00:37;28.02;;;25.25;;
9334;SDS011;4706;41.844;26.082;2022-11-14T04:03:03;29.42;;;26.23;;
9334;SDS011;4706;41.844;26.082;2022-11-14T04:05:29;30.50;;;27.17;;
9334;SDS011;4706;41.844;26.082;2022-11-14T04:07:54;30.83;;;27.00;;
9334;SDS011;4706;41.844;26.082;2022-11-14T04:10:20;32.22;;;27.42;;
9334;SDS011;4706;41.844;26.082;2022-11-14T04:12:47;31.83;;;28.50;;
9334;SDS011;4706;41.844;26.082;2022-11-14T04:15:13;33.55;;;27.67;;
9334;SDS011;4706;41.844;26.082;2022-11-14T04:17:39;31.67;;;27.30;;
9334;SDS011;4706;41.844;26.082;2022-11-14T04:20:05;28.85;;;25.85;;
9334;SDS011;4706;41.844;26.082;2022-11-14T04:22:31;27.30;;;24.50;;
9334;SDS011;4706;41.844;26.082;2022-11-14T04:24:56;29.33;;;26.30;;
9334;SDS011;4706;41.844;26.082;2022-11-14T04:27:22;26.23;;;23.67;;
9334;SDS011;4706;41.844;26.082;2022-11-14T04:29:47;26.48;;;23.85;;
9334;SDS011;4706;41.844;26.082;2022-11-14T04:32:13;27.58;;;24.88;;
9334;SDS011;4706;41.844;26.082;2022-11-14T04:34:38;25.98;;;23.48;;
9334;SDS011;4706;41.844;26.082;2022-11-14T04:37:04;25.75;;;23.27;;
9334;SDS011;4706;41.844;26.082;2022-11-14T04:39:29;25.40;;;23.10;;
9334;SDS011;4706;41.844;26.082;2022-11-14T04:41:55;26.83;;;24.30;;
9334;SDS011;4706;41.844;26.082;2022-11-14T04:44:20;26.65;;;24.10;;
9334;SDS011;4706;41.844;26.082;2022-11-14T04:46:46;28.10;;;25.55;;
9334;SDS011;4706;41.844;26.082;2022-11-14T04:49:12;30.17;;;27.23;;
9334;SDS011;4706;41.844;26.082;2022-11-14T04:51:37;28.15;;;25.55;;
9334;SDS011;4706;41.844;26.082;2022-11-14T04:54:03;30.63;;;27.92;;
9334;SDS011;4706;41.844;26.082;2022-11-14T04:56:29;30.35;;;27.48;;
9334;SDS011;4706;41.844;26.082;2022-11-14T04:58:54;31.08;;;28.02;;
9334;SDS011;4706;41.844;26.082;2022-11-14T05:01:20;33.15;;;29.85;;
9334;SDS011;4706;41.844;26.082;2022-11-14T05:03:46;31.42;;;28.13;;
9334;SDS011;4706;41.844;26.082;2022-11-14T05:06:11;32.15;;;28.15;;
9334;SDS011;4706;41.844;26.082;2022-11-14T05:08:37;31.38;;;28.15;;
9334;SDS011;4706;41.844;26.082;2022-11-14T05:11:02;31.38;;;28.23;;
9334;SDS011;4706;41.844;26.082;2022-11-14T05:13:28;30.52;;;27.45;;
9334;SDS011;4706;41.844;26.082;2022-11-14T05:15:57;30.58;;;27.65;;
9334;SDS011;4706;41.844;26.082;2022-11-14T05:18:23;29.08;;;26.27;;
9334;SDS011;4706;41.844;26.082;2022-11-14T05:20:49;27.02;;;24.52;;
9334;SDS011;4706;41.844;26.082;2022-11-14T05:23:21;28.77;;;25.85;;
9334;SDS011;4706;41.844;26.082;2022-11-14T05:25:57;40.60;;;27.73;;
9334;SDS011;4706;41.844;26.082;2022-11-14T05:28:28;32.85;;;26.40;;
9334;SDS011;4706;41.844;26.082;2022-11-14T05:31:07;32.00;;;27.88;;
9334;SDS011;4706;41.844;26.082;2022-11-14T05:33:34;34.40;;;27.55;;
9334;SDS011;4706;41.844;26.082;2022-11-14T05:36:01;29.85;;;26.77;;
9334;SDS011;4706;41.844;26.082;2022-11-14T05:38:31;28.98;;;25.88;;
9334;SDS011;4706;41.844;26.082;2022-11-14T05:40:57;29.45;;;26.35;;
9334;SDS011;4706;41.844;26.082;2022-11-14T05:43:23;38.45;;;31.65;;
9334;SDS011;4706;41.844;26.082;2022-11-14T05:45:49;32.97;;;28.13;;
9334;SDS011;4706;41.844;26.082;2022-11-14T05:48:15;31.77;;;28.35;;
9334;SDS011;4706;41.844;26.082;2022-11-14T05:50:41;35.13;;;31.40;;
9334;SDS011;4706;41.844;26.082;2022-11-14T05:53:06;33.03;;;27.73;;
9334;SDS011;4706;41.844;26.082;2022-11-14T05:55:32;35.53;;;28.55;;
9334;SDS011;4706;41.844;26.082;2022-11-14T05:57:58;35.80;;;29.08;;
9334;SDS011;4706;41.844;26.082;2022-11-14T06:00:24;33.85;;;26.48;;
9334;SDS011;4706;41.844;26.082;2022-11-14T06:02:53;36.40;;;27.38;;
9334;SDS011;4706;41.844;26.082;2022-11-14T06:05:20;36.78;;;29.10;;
9334;SDS011;4706;41.844;26.082;2022-11-14T06:07:47;29.23;;;26.30;;
9334;SDS011;4706;41.844;26.082;2022-11-14T06:10:12;30.85;;;27.67;;
9334;SDS011;4706;41.844;26.082;2022-11-14T06:12:38;30.55;;;27.48;;
9334;SDS011;4706;41.844;26.082;2022-11-14T06:15:04;32.20;;;27.02;;
9334;SDS011;4706;41.844;26.082;2022-11-14T06:17:30;37.88;;;33.75;;
9334;SDS011;4706;41.844;26.082;2022-11-14T06:19:56;36.65;;;32.00;;
9334;SDS011;4706;41.844;26.082;2022-11-14T06:22:21;42.35;;;32.22;;
9334;SDS011;4706;41.844;26.082;2022-11-14T06:24:47;38.05;;;31.92;;
9334;SDS011;4706;41.844;26.082;2022-11-14T06:27:12;34.30;;;30.15;;
9334;SDS011;4706;41.844;26.082;2022-11-14T06:29:38;38.85;;;34.90;;
9334;SDS011;4706;41.844;26.082;2022-11-14T06:32:03;37.60;;;33.58;;
9334;SDS011;4706;41.844;26.082;2022-11-14T06:34:29;34.92;;;31.00;;
9334;SDS011;4706;41.844;26.082;2022-11-14T06:36:54;42.38;;;38.22;;
9334;SDS011;4706;41.844;26.082;2022-11-14T06:39:20;38.80;;;34.67;;
9334;SDS011;4706;41.844;26.082;2022-11-14T06:41:46;38.05;;;30.55;;
9334;SDS011;4706;41.844;26.082;2022-11-14T06:44:11;44.95;;;37.60;;
9334;SDS011;4706;41.844;26.082;2022-11-14T06:46:39;33.20;;;29.70;;
9334;SDS011;4706;41.844;26.082;2022-11-14T06:49:05;35.53;;;30.75;;
9334;SDS011;4706;41.844;26.082;2022-11-14T06:51:30;31.08;;;27.25;;
9334;SDS011;4706;41.844;26.082;2022-11-14T06:53:56;33.95;;;30.20;;
9334;SDS011;4706;41.844;26.082;2022-11-14T06:56:22;43.80;;;35.10;;
9334;SDS011;4706;41.844;26.082;2022-11-14T06:58:48;40.10;;;32.25;;
9334;SDS011;4706;41.844;26.082;2022-11-14T07:01:15;40.15;;;34.17;;
9334;SDS011;4706;41.844;26.082;2022-11-14T07:03:45;39.22;;;33.83;;
9334;SDS011;4706;41.844;26.082;2022-11-14T07:06:15;48.67;;;34.50;;
9334;SDS011;4706;41.844;26.082;2022-11-14T07:08:44;31.85;;;28.50;;
9334;SDS011;4706;41.844;26.082;2022-11-14T07:11:11;42.50;;;34.10;;
9334;SDS011;4706;41.844;26.082;2022-11-14T07:13:52;38.30;;;32.75;;
9334;SDS011;4706;41.844;26.082;2022-11-14T07:16:32;36.90;;;30.42;;
9334;SDS011;4706;41.844;26.082;2022-11-14T07:18:59;33.42;;;29.80;;
9334;SDS011;4706;41.844;26.082;2022-11-14T07:21:26;39.80;;;29.55;;
9334;SDS011;4706;41.844;26.082;2022-11-14T07:23:54;27.98;;;24.95;;
9334;SDS011;4706;41.844;26.082;2022-11-14T07:26:21;27.80;;;24.77;;
9334;SDS011;4706;41.844;26.082;2022-11-14T07:28:47;31.92;;;28.77;;
9334;SDS011;4706;41.844;26.082;2022-11-14T07:31:13;30.35;;;27.08;;
9334;SDS011;4706;41.844;26.082;2022-11-14T07:33:44;33.13;;;29.63;;
9334;SDS011;4706;41.844;26.082;2022-11-14T07:36:11;30.27;;;27.08;;
9334;SDS011;4706;41.844;26.082;2022-11-14T07:38:38;39.40;;;31.17;;
9334;SDS011;4706;41.844;26.082;2022-11-14T07:41:05;27.27;;;24.48;;
9334;SDS011;4706;41.844;26.082;2022-11-14T07:43:35;25.90;;;23.30;;
9334;SDS011;4706;41.844;26.082;2022-11-14T07:46:04;28.67;;;25.63;;
9334;SDS011;4706;41.844;26.082;2022-11-14T07:48:31;27.85;;;24.83;;
9334;SDS011;4706;41.844;26.082;2022-11-14T07:51:01;27.73;;;23.52;;
9334;SDS011;4706;41.844;26.082;2022-11-14T07:53:28;47.17;;;26.52;;
9334;SDS011;4706;41.844;26.082;2022-11-14T07:55:55;58.70;;;27.00;;
9334;SDS011;4706;41.844;26.082;2022-11-14T07:58:21;25.35;;;22.67;;
9334;SDS011;4706;41.844;26.082;2022-11-14T08:00:47;26.73;;;22.73;;
9334;SDS011;4706;41.844;26.082;2022-11-14T08:03:13;26.10;;;23.42;;
9334;SDS011;4706;41.844;26.082;2022-11-14T08:05:38;26.13;;;22.98;;
9334;SDS011;4706;41.844;26.082;2022-11-14T08:08:04;23.98;;;21.45;;
9334;SDS011;4706;41.844;26.082;2022-11-14T08:10:29;25.48;;;22.13;;
9334;SDS011;4706;41.844;26.082;2022-11-14T08:12:59;23.13;;;20.27;;
9334;SDS011;4706;41.844;26.082;2022-11-14T08:15:26;23.92;;;20.92;;
9334;SDS011;4706;41.844;26.082;2022-11-14T08:17:52;62.50;;;23.38;;
9334;SDS011;4706;41.844;26.082;2022-11-14T08:20:21;34.00;;;21.70;;
9334;SDS011;4706;41.844;26.082;2022-11-14T08:22:46;23.70;;;21.23;;
9334;SDS011;4706;41.844;26.082;2022-11-14T08:25:12;24.08;;;21.45;;
9334;SDS011;4706;41.844;26.082;2022-11-14T08:27:37;24.15;;;21.55;;
9334;SDS011;4706;41.844;26.082;2022-11-14T08:30:03;25.00;;;22.45;;
9334;SDS011;4706;41.844;26.082;2022-11-14T08:32:28;23.17;;;20.67;;
9334;SDS011;4706;41.844;26.082;2022-11-14T08:34:54;22.67;;;20.08;;
9334;SDS011;4706;41.844;26.082;2022-11-14T08:37:19;22.30;;;19.17;;
9334;SDS011;4706;41.844;26.082;2022-11-14T08:39:45;23.13;;;20.80;;
9334;SDS011;4706;41.844;26.082;2022-11-14T08:42:10;21.60;;;19.42;;
9334;SDS011;4706;41.844;26.082;2022-11-14T08:44:36;21.30;;;18.90;;
9334;SDS011;4706;41.844;26.082;2022-11-14T08:47:01;22.45;;;20.13;;
9334;SDS011;4706;41.844;26.082;2022-11-14T08:49:28;24.65;;;21.52;;
9334;SDS011;4706;41.844;26.082;2022-11-14T08:51:53;22.63;;;20.25;;
9334;SDS011;4706;41.844;26.082;2022-11-14T08:54:19;20.38;;;18.20;;
9334;SDS011;4706;41.844;26.082;2022-11-14T08:56:45;21.25;;;18.90;;
9334;SDS011;4706;41.844;26.082;2022-11-14T08:59:10;22.10;;;19.73;;
9334;SDS011;4706;41.844;26.082;2022-11-14T09:01:36;22.75;;;20.50;;
9334;SDS011;4706;41.844;26.082;2022-11-14T09:04:01;23.40;;;20.73;;
9334;SDS011;4706;41.844;26.082;2022-11-14T09:06:27;25.25;;;21.92;;
9334;SDS011;4706;41.844;26.082;2022-11-14T09:08:53;25.08;;;20.15;;
9334;SDS011;4706;41.844;26.082;2022-11-14T09:11:18;22.25;;;19.88;;
9334;SDS011;4706;41.844;26.082;2022-11-14T09:13:44;44.88;;;33.53;;
9334;SDS011;4706;41.844;26.082;2022-11-14T09:16:10;22.25;;;19.83;;
9334;SDS011;4706;41.844;26.082;2022-11-14T09:18:35;22.67;;;20.30;;
9334;SDS011;4706;41.844;26.082;2022-11-14T09:21:02;23.50;;;20.30;;
9334;SDS011;4706;41.844;26.082;2022-11-14T09:23:30;20.77;;;18.77;;
9334;SDS011;4706;41.844;26.082;2022-11-14T09:25:56;20.60;;;18.40;;
9334;SDS011;4706;41.844;26.082;2022-11-14T09:28:22;21.85;;;19.65;;
9334;SDS011;4706;41.844;26.082;2022-11-14T09:30:48;23.33;;;20.80;;
9334;SDS011;4706;41.844;26.082;2022-11-14T09:33:14;22.15;;;19.60;;
9334;SDS011;4706;41.844;26.082;2022-11-14T09:35:40;20.92;;;17.80;;
9334;SDS011;4706;41.844;26.082;2022-11-14T09:38:06;24.67;;;19.70;;
9334;SDS011;4706;41.844;26.082;2022-11-14T09:40:45;21.40;;;19.25;;
9334;SDS011;4706;41.844;26.082;2022-11-14T09:43:28;26.25;;;22.33;;
9334;SDS011;4706;41.844;26.082;2022-11-14T09:46:03;21.88;;;19.77;;
9334;SDS011;4706;41.844;26.082;2022-11-14T09:48:42;22.88;;;19.90;;
9334;SDS011;4706;41.844;26.082;2022-11-14T09:51:09;21.48;;;19.30;;
9334;SDS011;4706;41.844;26.082;2022-11-14T09:56:38;21.35;;;19.25;;
9334;SDS011;4706;41.844;26.082;2022-11-14T09:59:04;22.35;;;19.55;;
9334;SDS011;4706;41.844;26.082;2022-11-14T10:07:40;22.83;;;20.55;;
9334;SDS011;4706;41.844;26.082;2022-11-14T10:10:37;21.70;;;19.52;;
9334;SDS011;4706;41.844;26.082;2022-11-14T10:13:37;24.63;;;20.13;;
9334;SDS011;4706;41.844;26.082;2022-11-14T10:16:33;22.42;;;20.02;;
9334;SDS011;4706;41.844;26.082;2022-11-14T10:24:56;21.17;;;18.98;;
9334;SDS011;4706;41.844;26.082;2022-11-14T10:27:44;25.60;;;22.15;;
9334;SDS011;4706;41.844;26.082;2022-11-14T10:30:14;21.45;;;19.33;;
9334;SDS011;4706;41.844;26.082;2022-11-14T10:35:28;21.63;;;19.33;;
9334;SDS011;4706;41.844;26.082;2022-11-14T10:40:46;25.17;;;22.55;;
9334;SDS011;4706;41.844;26.082;2022-11-14T10:43:25;24.02;;;21.52;;
9334;SDS011;4706;41.844;26.082;2022-11-14T10:46:10;20.92;;;18.77;;
9334;SDS011;4706;41.844;26.082;2022-11-14T10:48:48;20.00;;;17.73;;
9334;SDS011;4706;41.844;26.082;2022-11-14T10:51:23;19.45;;;17.40;;
9334;SDS011;4706;41.844;26.082;2022-11-14T10:56:33;18.92;;;16.95;;
9334;SDS011;4706;41.844;26.082;2022-11-14T10:58:59;21.27;;;19.17;;
9334;SDS011;4706;41.844;26.082;2022-11-14T11:01:42;19.40;;;17.42;;
9334;SDS011;4706;41.844;26.082;2022-11-14T11:06:54;18.33;;;16.48;;
9334;SDS011;4706;41.844;26.082;2022-11-14T11:09:22;16.88;;;15.07;;
9334;SDS011;4706;41.844;26.082;2022-11-14T11:12:17;17.50;;;15.75;;
9334;SDS011;4706;41.844;26.082;2022-11-14T11:14:45;14.10;;;12.55;;
9334;SDS011;4706;41.844;26.082;2022-11-14T11:19:42;13.88;;;12.68;;
9334;SDS011;4706;41.844;26.082;2022-11-14T11:22:34;13.10;;;11.90;;
9334;SDS011;4706;41.844;26.082;2022-11-14T11:25:50;14.52;;;13.13;;
9334;SDS011;4706;41.844;26.082;2022-11-14T11:33:29;10.13;;;9.23;;
9334;SDS011;4706;41.844;26.082;2022-11-14T11:36:00;8.48;;;7.50;;
9334;SDS011;4706;41.844;26.082;2022-11-14T11:38:29;11.88;;;10.85;;
9334;SDS011;4706;41.844;26.082;2022-11-14T11:40:58;6.90;;;6.30;;
9334;SDS011;4706;41.844;26.082;2022-11-14T11:43:39;9.68;;;7.55;;
9334;SDS011;4706;41.844;26.082;2022-11-14T11:46:11;9.23;;;8.35;;
9334;SDS011;4706;41.844;26.082;2022-11-14T11:48:40;8.20;;;7.55;;
9334;SDS011;4706;41.844;26.082;2022-11-14T11:51:11;7.80;;;7.03;;
9334;SDS011;4706;41.844;26.082;2022-11-14T11:54:01;7.60;;;6.93;;
9334;SDS011;4706;41.844;26.082;2022-11-14T11:56:34;6.47;;;5.95;;
9334;SDS011;4706;41.844;26.082;2022-11-14T12:01:50;9.52;;;8.45;;
9334;SDS011;4706;41.844;26.082;2022-11-14T12:04:16;9.38;;;8.32;;
9334;SDS011;4706;41.844;26.082;2022-11-14T12:06:45;9.00;;;8.10;;
9334;SDS011;4706;41.844;26.082;2022-11-14T12:09:20;7.75;;;6.95;;
9334;SDS011;4706;41.844;26.082;2022-11-14T12:11:56;8.75;;;8.05;;
9334;SDS011;4706;41.844;26.082;2022-11-14T12:14:30;9.65;;;8.35;;
9334;SDS011;4706;41.844;26.082;2022-11-14T12:25:27;8.77;;;7.93;;
9334;SDS011;4706;41.844;26.082;2022-11-14T12:30:56;9.15;;;7.75;;
9334;SDS011;4706;41.844;26.082;2022-11-14T12:33:28;9.70;;;8.70;;
9334;SDS011;4706;41.844;26.082;2022-11-14T12:35:58;8.55;;;7.72;;
9334;SDS011;4706;41.844;26.082;2022-11-14T12:38:29;9.68;;;8.10;;
9334;SDS011;4706;41.844;26.082;2022-11-14T12:41:04;9.30;;;8.50;;
9334;SDS011;4706;41.844;26.082;2022-11-14T12:46:07;9.73;;;8.93;;
9334;SDS011;4706;41.844;26.082;2022-11-14T12:48:36;10.43;;;9.52;;
9334;SDS011;4706;41.844;26.082;2022-11-14T12:51:04;11.10;;;10.02;;
9334;SDS011;4706;41.844;26.082;2022-11-14T12:53:50;10.23;;;9.32;;
9334;SDS011;4706;41.844;26.082;2022-11-14T12:58:47;9.65;;;8.68;;
9334;SDS011;4706;41.844;26.082;2022-11-14T13:09:35;9.88;;;8.98;;
9334;SDS011;4706;41.844;26.082;2022-11-14T13:12:17;10.93;;;9.38;;
9334;SDS011;4706;41.844;26.082;2022-11-14T13:15:27;11.57;;;10.13;;
9334;SDS011;4706;41.844;26.082;2022-11-14T13:18:25;10.95;;;9.98;;
9334;SDS011;4706;41.844;26.082;2022-11-14T13:24:13;10.73;;;9.50;;
9334;SDS011;4706;41.844;26.082;2022-11-14T13:26:41;10.50;;;9.60;;
9334;SDS011;4706;41.844;26.082;2022-11-14T13:29:07;10.80;;;9.90;;
9334;SDS011;4706;41.844;26.082;2022-11-14T13:31:52;11.32;;;10.25;;
9334;SDS011;4706;41.844;26.082;2022-11-14T13:37:04;10.23;;;9.32;;
9334;SDS011;4706;41.844;26.082;2022-11-14T13:42:19;10.15;;;9.25;;
9334;SDS011;4706;41.844;26.082;2022-11-14T13:45:22;15.15;;;11.43;;
9334;SDS011;4706;41.844;26.082;2022-11-14T13:50:48;11.65;;;10.57;;
9334;SDS011;4706;41.844;26.082;2022-11-14T13:53:27;14.38;;;12.93;;
9334;SDS011;4706;41.844;26.082;2022-11-14T13:55:58;11.35;;;10.25;;
9334;SDS011;4706;41.844;26.082;2022-11-14T13:58:31;17.10;;;10.77;;
9334;SDS011;4706;41.844;26.082;2022-11-14T14:01:20;10.95;;;9.93;;
9334;SDS011;4706;41.844;26.082;2022-11-14T14:06:35;12.98;;;11.65;;
9334;SDS011;4706;41.844;26.082;2022-11-14T14:14:41;12.15;;;10.95;;
9334;SDS011;4706;41.844;26.082;2022-11-14T14:17:17;12.77;;;11.57;;
9334;SDS011;4706;41.844;26.082;2022-11-14T14:22:38;20.35;;;14.85;;
9334;SDS011;4706;41.844;26.082;2022-11-14T14:25:31;12.85;;;11.65;;
9334;SDS011;4706;41.844;26.082;2022-11-14T14:30:33;17.60;;;12.93;;
9334;SDS011;4706;41.844;26.082;2022-11-14T14:33:14;16.42;;;14.45;;
9334;SDS011;4706;41.844;26.082;2022-11-14T14:35:49;14.82;;;12.93;;
9334;SDS011;4706;41.844;26.082;2022-11-14T14:38:25;17.13;;;13.43;;
9334;SDS011;4706;41.844;26.082;2022-11-14T14:40:55;20.70;;;16.08;;
9334;SDS011;4706;41.844;26.082;2022-11-14T14:43:23;23.08;;;19.63;;
9334;SDS011;4706;41.844;26.082;2022-11-14T14:45:59;24.73;;;22.13;;
9334;SDS011;4706;41.844;26.082;2022-11-14T14:48:26;25.52;;;21.27;;
9334;SDS011;4706;41.844;26.082;2022-11-14T14:50:54;20.50;;;18.40;;
9334;SDS011;4706;41.844;26.082;2022-11-14T14:55:52;27.08;;;24.23;;
9334;SDS011;4706;41.844;26.082;2022-11-14T15:00:57;43.05;;;34.50;;
9334;SDS011;4706;41.844;26.082;2022-11-14T15:03:24;31.40;;;26.35;;
9334;SDS011;4706;41.844;26.082;2022-11-14T15:06:01;28.65;;;23.65;;
9334;SDS011;4706;41.844;26.082;2022-11-14T15:08:28;40.00;;;34.70;;
9334;SDS011;4706;41.844;26.082;2022-11-14T15:10:59;29.60;;;26.42;;
9334;SDS011;4706;41.844;26.082;2022-11-14T15:13:26;27.55;;;22.15;;
9334;SDS011;4706;41.844;26.082;2022-11-14T15:15:54;25.67;;;23.00;;
9334;SDS011;4706;41.844;26.082;2022-11-14T15:21:49;31.55;;;25.52;;
9334;SDS011;4706;41.844;26.082;2022-11-14T15:23:58;31.58;;;27.27;;
9334;SDS011;4706;41.844;26.082;2022-11-14T15:26:25;42.80;;;37.90;;
9334;SDS011;4706;41.844;26.082;2022-11-14T15:29:10;39.60;;;33.95;;
9334;SDS011;4706;41.844;26.082;2022-11-14T15:31:49;40.03;;;32.20;;
9334;SDS011;4706;41.844;26.082;2022-11-14T15:34:34;43.67;;;38.28;;
9334;SDS011;4706;41.844;26.082;2022-11-14T15:37:16;53.17;;;44.50;;
9334;SDS011;4706;41.844;26.082;2022-11-14T15:39:45;50.60;;;39.50;;
9334;SDS011;4706;41.844;26.082;2022-11-14T15:44:50;41.67;;;35.85;;
9334;SDS011;4706;41.844;26.082;2022-11-14T15:47:17;38.47;;;34.33;;
9334;SDS011;4706;41.844;26.082;2022-11-14T15:50:02;36.20;;;32.05;;
9334;SDS011;4706;41.844;26.082;2022-11-14T15:54:55;33.33;;;28.95;;
9334;SDS011;4706;41.844;26.082;2022-11-14T15:57:20;31.42;;;28.23;;
9334;SDS011;4706;41.844;26.082;2022-11-14T15:59:46;25.73;;;22.98;;
9334;SDS011;4706;41.844;26.082;2022-11-14T16:02:16;30.77;;;26.50;;
9334;SDS011;4706;41.844;26.082;2022-11-14T16:04:45;38.20;;;30.48;;
9334;SDS011;4706;41.844;26.082;2022-11-14T16:07:12;34.50;;;27.48;;
9334;SDS011;4706;41.844;26.082;2022-11-14T16:09:38;31.20;;;26.00;;
9334;SDS011;4706;41.844;26.082;2022-11-14T16:12:04;33.22;;;27.63;;
9334;SDS011;4706;41.844;26.082;2022-11-14T16:14:30;27.20;;;24.45;;
9334;SDS011;4706;41.844;26.082;2022-11-14T16:16:56;22.88;;;20.48;;
9334;SDS011;4706;41.844;26.082;2022-11-14T16:19:21;20.90;;;18.75;;
9334;SDS011;4706;41.844;26.082;2022-11-14T16:21:47;22.63;;;20.48;;
9334;SDS011;4706;41.844;26.082;2022-11-14T16:24:14;24.75;;;22.35;;
9334;SDS011;4706;41.844;26.082;2022-11-14T16:26:44;21.23;;;19.23;;
9334;SDS011;4706;41.844;26.082;2022-11-14T16:29:10;21.67;;;19.58;;
9334;SDS011;4706;41.844;26.082;2022-11-14T16:31:36;23.77;;;21.40;;
9334;SDS011;4706;41.844;26.082;2022-11-14T16:34:02;21.00;;;19.10;;